sensor_id;sensor_type;location;lat;lon;timestamp;P1;durP1;ratioP1;P2;durP2;ratioP2
12459;SDS011;6295;49.452;8.466;2023-10-13T06:14:39;8.43;;;7.57;;
12459;SDS011;6295;49.452;8.466;2023-10-13T06:18:59;7.90;;;6.87;;
12459;SDS011;6295;49.452;8.466;2023-10-13T06:23:19;10.30;;;7.20;;
12459;SDS011;6295;49.452;8.466;2023-10-13T06:27:38;8.40;;;7.23;;
12459;SDS011;6295;49.452;8.466;2023-10-13T06:31:59;8.83;;;7.30;;
12459;SDS011;6295;49.452;8.466;2023-10-13T06:36:10;10.03;;;7.00;;
12459;SDS011;6295;49.452;8.466;2023-10-13T06:40:13;8.20;;;6.80;;
12459;SDS011;6295;49.452;8.466;2023-10-13T06:44:26;7.90;;;7.10;;
12459;SDS011;6295;49.452;8.466;2023-10-13T06:48:33;8.03;;;6.93;;
12459;SDS011;6295;49.452;8.466;2023-10-13T06:52:36;9.60;;;7.27;;
12459;SDS011;6295;49.452;8.466;2023-10-13T06:56:38;8.10;;;6.67;;
12459;SDS011;6295;49.452;8.466;2023-10-13T07:00:41;9.43;;;7.00;;
12459;SDS011;6295;49.452;8.466;2023-10-13T07:04:54;8.20;;;7.10;;
12459;SDS011;6295;49.452;8.466;2023-10-13T07:09:07;7.77;;;6.90;;
12459;SDS011;6295;49.452;8.466;2023-10-13T07:13:15;8.73;;;6.30;;
12459;SDS011;6295;49.452;8.466;2023-10-13T07:17:19;8.00;;;6.90;;
12459;SDS011;6295;49.452;8.466;2023-10-13T07:21:27;7.37;;;6.40;;
12459;SDS011;6295;49.452;8.466;2023-10-13T07:25:31;6.80;;;5.90;;
12459;SDS011;6295;49.452;8.466;2023-10-13T07:29:37;8.30;;;6.40;;
12459;SDS011;6295;49.452;8.466;2023-10-13T07:33:42;7.87;;;6.10;;
12459;SDS011;6295;49.452;8.466;2023-10-13T07:37:46;6.83;;;6.03;;
12459;SDS011;6295;49.452;8.466;2023-10-13T07:41:52;7.43;;;5.80;;
12459;SDS011;6295;49.452;8.466;2023-10-13T07:46:04;7.93;;;6.17;;
12459;SDS011;6295;49.452;8.466;2023-10-13T07:50:09;9.00;;;5.93;;
12459;SDS011;6295;49.452;8.466;2023-10-13T07:54:14;6.40;;;5.80;;
12459;SDS011;6295;49.452;8.466;2023-10-13T07:58:22;7.07;;;6.10;;
12459;SDS011;6295;49.452;8.466;2023-10-13T08:02:26;6.23;;;5.63;;
12459;SDS011;6295;49.452;8.466;2023-10-13T08:06:46;8.67;;;5.93;;
12459;SDS011;6295;49.452;8.466;2023-10-13T08:10:50;7.77;;;6.30;;
12459;SDS011;6295;49.452;8.466;2023-10-13T08:14:55;7.83;;;5.77;;
12459;SDS011;6295;49.452;8.466;2023-10-13T08:19:16;6.93;;;5.80;;
12459;SDS011;6295;49.452;8.466;2023-10-13T08:23:20;7.03;;;5.60;;
12459;SDS011;6295;49.452;8.466;2023-10-13T08:27:40;8.47;;;5.30;;
12459;SDS011;6295;49.452;8.466;2023-10-13T08:32:19;6.77;;;5.70;;
12459;SDS011;6295;49.452;8.466;2023-10-13T08:36:36;6.47;;;5.40;;
12459;SDS011;6295;49.452;8.466;2023-10-13T08:40:42;7.80;;;5.63;;
12459;SDS011;6295;49.452;8.466;2023-10-13T08:45:02;8.57;;;5.57;;
12459;SDS011;6295;49.452;8.466;2023-10-13T08:49:22;6.97;;;5.53;;
12459;SDS011;6295;49.452;8.466;2023-10-13T08:53:31;9.93;;;5.50;;
12459;SDS011;6295;49.452;8.466;2023-10-13T08:57:44;6.97;;;5.33;;
12459;SDS011;6295;49.452;8.466;2023-10-13T09:01:50;8.17;;;5.13;;
12459;SDS011;6295;49.452;8.466;2023-10-13T09:06:18;7.57;;;5.20;;
12459;SDS011;6295;49.452;8.466;2023-10-13T09:10:22;6.47;;;5.43;;
12459;SDS011;6295;49.452;8.466;2023-10-13T09:14:35;6.27;;;5.63;;
12459;SDS011;6295;49.452;8.466;2023-10-13T09:18:39;7.13;;;4.90;;
12459;SDS011;6295;49.452;8.466;2023-10-13T09:22:50;7.63;;;4.93;;
12459;SDS011;6295;49.452;8.466;2023-10-13T09:27:07;5.63;;;5.00;;
12459;SDS011;6295;49.452;8.466;2023-10-13T09:31:13;8.33;;;4.83;;
12459;SDS011;6295;49.452;8.466;2023-10-13T09:35:26;7.73;;;5.37;;
12459;SDS011;6295;49.452;8.466;2023-10-13T09:39:32;8.47;;;5.07;;
12459;SDS011;6295;49.452;8.466;2023-10-13T09:43:44;11.93;;;5.53;;
12459;SDS011;6295;49.452;8.466;2023-10-13T09:47:47;5.87;;;4.90;;
12459;SDS011;6295;49.452;8.466;2023-10-13T09:51:53;7.77;;;4.47;;
12459;SDS011;6295;49.452;8.466;2023-10-13T09:56:05;7.90;;;4.50;;
12459;SDS011;6295;49.452;8.466;2023-10-13T10:00:15;6.13;;;4.90;;
12459;SDS011;6295;49.452;8.466;2023-10-13T10:04:37;6.87;;;4.47;;
12459;SDS011;6295;49.452;8.466;2023-10-13T10:08:51;5.97;;;4.37;;
12459;SDS011;6295;49.452;8.466;2023-10-13T10:12:59;7.57;;;4.93;;
12459;SDS011;6295;49.452;8.466;2023-10-13T10:17:12;7.40;;;4.70;;
12459;SDS011;6295;49.452;8.466;2023-10-13T10:21:15;5.80;;;4.80;;
12459;SDS011;6295;49.452;8.466;2023-10-13T10:25:28;5.40;;;4.30;;
12459;SDS011;6295;49.452;8.466;2023-10-13T10:29:36;9.40;;;5.00;;
12459;SDS011;6295;49.452;8.466;2023-10-13T10:33:38;8.13;;;4.73;;
12459;SDS011;6295;49.452;8.466;2023-10-13T10:37:41;7.67;;;4.70;;
12459;SDS011;6295;49.452;8.466;2023-10-13T10:41:48;6.63;;;4.87;;
12459;SDS011;6295;49.452;8.466;2023-10-13T10:45:54;6.70;;;4.53;;
12459;SDS011;6295;49.452;8.466;2023-10-13T10:50:00;5.97;;;4.80;;
12459;SDS011;6295;49.452;8.466;2023-10-13T10:54:07;5.97;;;4.70;;
12459;SDS011;6295;49.452;8.466;2023-10-13T10:58:19;6.23;;;4.70;;
12459;SDS011;6295;49.452;8.466;2023-10-13T11:02:34;7.43;;;5.03;;
12459;SDS011;6295;49.452;8.466;2023-10-13T11:06:38;6.33;;;4.60;;
12459;SDS011;6295;49.452;8.466;2023-10-13T11:10:47;7.03;;;4.93;;
12459;SDS011;6295;49.452;8.466;2023-10-13T11:14:59;8.90;;;5.20;;
12459;SDS011;6295;49.452;8.466;2023-10-13T11:19:04;6.53;;;5.00;;
12459;SDS011;6295;49.452;8.466;2023-10-13T11:23:10;8.87;;;5.07;;
12459;SDS011;6295;49.452;8.466;2023-10-13T11:27:15;6.87;;;5.13;;
12459;SDS011;6295;49.452;8.466;2023-10-13T11:31:21;5.40;;;4.90;;
12459;SDS011;6295;49.452;8.466;2023-10-13T11:35:28;7.53;;;5.17;;
12459;SDS011;6295;49.452;8.466;2023-10-13T11:39:49;7.10;;;5.17;;
12459;SDS011;6295;49.452;8.466;2023-10-13T11:43:52;6.90;;;5.30;;
12459;SDS011;6295;49.452;8.466;2023-10-13T11:48:07;9.47;;;5.83;;
12459;SDS011;6295;49.452;8.466;2023-10-13T11:52:16;6.40;;;5.43;;
12459;SDS011;6295;49.452;8.466;2023-10-13T11:56:18;7.80;;;5.90;;
12459;SDS011;6295;49.452;8.466;2023-10-13T12:00:21;8.07;;;5.13;;
12459;SDS011;6295;49.452;8.466;2023-10-13T12:04:48;9.30;;;5.37;;
12459;SDS011;6295;49.452;8.466;2023-10-13T12:08:56;6.00;;;4.93;;
12459;SDS011;6295;49.452;8.466;2023-10-13T12:13:13;7.10;;;5.50;;
12459;SDS011;6295;49.452;8.466;2023-10-13T12:17:17;8.03;;;5.20;;
12459;SDS011;6295;49.452;8.466;2023-10-13T12:21:25;5.60;;;5.00;;
12459;SDS011;6295;49.452;8.466;2023-10-13T12:25:28;7.73;;;5.20;;
12459;SDS011;6295;49.452;8.466;2023-10-13T12:29:44;6.70;;;5.10;;
12459;SDS011;6295;49.452;8.466;2023-10-13T12:33:47;7.90;;;5.40;;
12459;SDS011;6295;49.452;8.466;2023-10-13T12:37:49;8.13;;;5.20;;
12459;SDS011;6295;49.452;8.466;2023-10-13T12:41:53;6.40;;;5.40;;
12459;SDS011;6295;49.452;8.466;2023-10-13T12:46:12;7.50;;;5.80;;
12459;SDS011;6295;49.452;8.466;2023-10-13T12:50:35;8.37;;;5.60;;
12459;SDS011;6295;49.452;8.466;2023-10-13T12:54:57;7.67;;;5.60;;
12459;SDS011;6295;49.452;8.466;2023-10-13T12:59:10;6.73;;;5.50;;
12459;SDS011;6295;49.452;8.466;2023-10-13T13:03:18;8.77;;;5.37;;
12459;SDS011;6295;49.452;8.466;2023-10-13T13:07:30;6.87;;;5.10;;
12459;SDS011;6295;49.452;8.466;2023-10-13T13:11:43;6.90;;;5.30;;
12459;SDS011;6295;49.452;8.466;2023-10-13T13:15:50;6.93;;;5.00;;
12459;SDS011;6295;49.452;8.466;2023-10-13T13:19:54;7.10;;;5.20;;
12459;SDS011;6295;49.452;8.466;2023-10-13T13:23:57;6.63;;;5.07;;
12459;SDS011;6295;49.452;8.466;2023-10-13T13:28:04;6.80;;;5.27;;
12459;SDS011;6295;49.452;8.466;2023-10-13T13:32:15;5.87;;;5.00;;
12459;SDS011;6295;49.452;8.466;2023-10-13T13:36:25;6.00;;;4.90;;
12459;SDS011;6295;49.452;8.466;2023-10-13T13:40:30;6.50;;;5.10;;
12459;SDS011;6295;49.452;8.466;2023-10-13T13:44:36;5.80;;;4.90;;
12459;SDS011;6295;49.452;8.466;2023-10-13T13:48:41;7.23;;;4.90;;
12459;SDS011;6295;49.452;8.466;2023-10-13T13:52:47;5.63;;;4.70;;
12459;SDS011;6295;49.452;8.466;2023-10-13T13:56:50;5.63;;;5.00;;
12459;SDS011;6295;49.452;8.466;2023-10-13T14:00:52;8.53;;;4.70;;
12459;SDS011;6295;49.452;8.466;2023-10-13T14:05:02;6.97;;;4.90;;
12459;SDS011;6295;49.452;8.466;2023-10-13T14:09:04;6.43;;;4.80;;
12459;SDS011;6295;49.452;8.466;2023-10-13T14:13:14;7.07;;;4.90;;
12459;SDS011;6295;49.452;8.466;2023-10-13T14:17:16;7.17;;;4.83;;
12459;SDS011;6295;49.452;8.466;2023-10-13T14:21:20;6.77;;;4.73;;
12459;SDS011;6295;49.452;8.466;2023-10-13T14:25:24;7.33;;;4.83;;
12459;SDS011;6295;49.452;8.466;2023-10-13T14:29:28;6.03;;;4.63;;
12459;SDS011;6295;49.452;8.466;2023-10-13T14:33:30;4.93;;;4.17;;
12459;SDS011;6295;49.452;8.466;2023-10-13T14:37:34;7.03;;;4.90;;
12459;SDS011;6295;49.452;8.466;2023-10-13T14:41:37;6.90;;;4.73;;
12459;SDS011;6295;49.452;8.466;2023-10-13T14:45:40;7.83;;;4.50;;
12459;SDS011;6295;49.452;8.466;2023-10-13T14:49:42;6.00;;;4.80;;
12459;SDS011;6295;49.452;8.466;2023-10-13T14:53:46;5.93;;;4.80;;
12459;SDS011;6295;49.452;8.466;2023-10-13T14:57:49;4.93;;;4.43;;
12459;SDS011;6295;49.452;8.466;2023-10-13T15:01:51;4.57;;;4.10;;
12459;SDS011;6295;49.452;8.466;2023-10-13T15:05:53;6.07;;;4.27;;
12459;SDS011;6295;49.452;8.466;2023-10-13T15:09:57;5.83;;;4.30;;
12459;SDS011;6295;49.452;8.466;2023-10-13T15:14:00;6.50;;;4.30;;
12459;SDS011;6295;49.452;8.466;2023-10-13T15:18:02;7.33;;;4.23;;
12459;SDS011;6295;49.452;8.466;2023-10-13T15:22:04;4.80;;;4.20;;
12459;SDS011;6295;49.452;8.466;2023-10-13T15:26:10;7.37;;;4.57;;
12459;SDS011;6295;49.452;8.466;2023-10-13T15:30:15;6.70;;;4.77;;
12459;SDS011;6295;49.452;8.466;2023-10-13T15:34:26;6.87;;;4.73;;
12459;SDS011;6295;49.452;8.466;2023-10-13T15:38:29;5.90;;;4.67;;
12459;SDS011;6295;49.452;8.466;2023-10-13T15:42:33;7.03;;;4.37;;
12459;SDS011;6295;49.452;8.466;2023-10-13T15:46:38;6.50;;;4.30;;
12459;SDS011;6295;49.452;8.466;2023-10-13T15:50:41;5.63;;;4.27;;
12459;SDS011;6295;49.452;8.466;2023-10-13T15:54:43;5.63;;;4.00;;
12459;SDS011;6295;49.452;8.466;2023-10-13T15:58:47;4.77;;;4.07;;
12459;SDS011;6295;49.452;8.466;2023-10-13T16:02:50;6.83;;;4.40;;
12459;SDS011;6295;49.452;8.466;2023-10-13T16:06:54;4.87;;;3.87;;
12459;SDS011;6295;49.452;8.466;2023-10-13T16:11:02;8.13;;;4.63;;
12459;SDS011;6295;49.452;8.466;2023-10-13T16:15:09;7.83;;;4.93;;
12459;SDS011;6295;49.452;8.466;2023-10-13T16:19:13;6.27;;;4.60;;
12459;SDS011;6295;49.452;8.466;2023-10-13T16:23:17;7.00;;;5.07;;
12459;SDS011;6295;49.452;8.466;2023-10-13T16:27:19;9.07;;;6.17;;
12459;SDS011;6295;49.452;8.466;2023-10-13T16:31:23;10.13;;;6.80;;
12459;SDS011;6295;49.452;8.466;2023-10-13T16:35:28;10.43;;;6.40;;
12459;SDS011;6295;49.452;8.466;2023-10-13T16:39:33;10.13;;;6.70;;
12459;SDS011;6295;49.452;8.466;2023-10-13T16:43:39;7.83;;;6.30;;
12459;SDS011;6295;49.452;8.466;2023-10-13T16:47:43;9.67;;;5.90;;
12459;SDS011;6295;49.452;8.466;2023-10-13T16:51:45;6.87;;;6.00;;
12459;SDS011;6295;49.452;8.466;2023-10-13T16:55:48;8.23;;;6.03;;
12459;SDS011;6295;49.452;8.466;2023-10-13T16:59:50;6.20;;;5.60;;
12459;SDS011;6295;49.452;8.466;2023-10-13T17:03:54;7.13;;;4.90;;
12459;SDS011;6295;49.452;8.466;2023-10-13T17:07:56;6.23;;;4.80;;
12459;SDS011;6295;49.452;8.466;2023-10-13T17:11:59;5.97;;;4.30;;
12459;SDS011;6295;49.452;8.466;2023-10-13T17:16:05;5.53;;;4.03;;
12459;SDS011;6295;49.452;8.466;2023-10-13T17:20:13;6.07;;;3.60;;
12459;SDS011;6295;49.452;8.466;2023-10-13T17:24:17;5.37;;;3.67;;
12459;SDS011;6295;49.452;8.466;2023-10-13T17:28:19;4.07;;;3.60;;
12459;SDS011;6295;49.452;8.466;2023-10-13T17:32:22;5.80;;;3.67;;
12459;SDS011;6295;49.452;8.466;2023-10-13T17:36:25;4.33;;;3.67;;
12459;SDS011;6295;49.452;8.466;2023-10-13T17:40:29;4.60;;;3.50;;
12459;SDS011;6295;49.452;8.466;2023-10-13T17:44:32;3.77;;;3.47;;
12459;SDS011;6295;49.452;8.466;2023-10-13T17:48:34;4.13;;;3.43;;
12459;SDS011;6295;49.452;8.466;2023-10-13T17:52:38;4.53;;;3.63;;
